Terminal Aerodrome Forecast
Issued by NWS

Home | Current Version | Previous Version | Graphics & Text | Print | Product List | Glossary Off
Versions: 1 2 3 4 5 6 7 8 9 10 11 12 13 14 15 16 17 18 19 20 21 22 23 24 25 26 27 28 29 30 31 32 33 34 35 36 37 38

000
FTUS43 KGRB 231100
TAFRHI
TAF
KRHI 231135Z 2312/2412 17009KT 1/4SM -DZ FG VV002
      TEMPO 2312/2316 1/2SM FG OVC003
     FM231700 19007KT 3/4SM -RA BR OVC003
     FM232300 14003KT 1/2SM -RA FG OVC002
     FM240600 32007KT 2SM -RA BR OVC004=

USA.gov is the U.S. government's official web portal to all federal, state and local government web resources and services.